This is the latest recevied weather packets stored in our database for station/object WAYLND-WX. If no packets are shown the sender has not sent any weather packets the latest 10 day(s).
| Time | Temp. | Humidity | Pressure | Rain* | Wind** | Luminosity | Snow |
|---|---|---|---|---|---|---|---|
| 1777554941 | 5.56° C | 85% | 988.7 hPa | 0 mm | - | - | - |
| 1777554074 | 5.56° C | 85% | 988.7 hPa | 0 mm | - | - | - |
| 1777553142 | 5° C | 87% | 987.3 hPa | 0 mm | - | - | - |
| 1777552255 | 5° C | 87% | 988.3 hPa | 0 mm | - | - | - |
| 1777551342 | 4.44° C | 87% | 988.3 hPa | 0 mm | - | - | - |
| 1777545059 | 2.22° C | 92% | 988.4 hPa | 0 mm | - | - | - |
| 1777544141 | 2.22° C | 92% | 988.4 hPa | 0 mm | - | - | - |
| 1777542340 | 2.78° C | 90% | 988.3 hPa | 0 mm | - | - | - |
| 1777541457 | 2.78° C | 90% | 988.3 hPa | 0 mm | - | - | - |
| 1777540540 | 2.78° C | 90% | 988.3 hPa | 0 mm | - | - | - |
| 1777539666 | 2.78° C | 90% | 988.3 hPa | 0 mm | - | - | - |
| 1777537860 | 3.33° C | 88% | 987.8 hPa | 0 mm | - | - | - |
| 1777536940 | 3.33° C | 88% | 987.8 hPa | 0 mm | - | - | - |
| 1777536071 | 3.33° C | 88% | 987.8 hPa | 0 mm | - | - | - |
| 1777535141 | 3.33° C | 87% | 987.3 hPa | 0 mm | - | - | - |
| 1777534259 | 3.89° C | 87% | 987.3 hPa | 0 mm | - | - | - |
| 1777533340 | 4.44° C | 87% | 987.4 hPa | 0 mm | - | - | - |
| 1777532468 | 4.44° C | 87% | 987.4 hPa | 0 mm | - | - | - |
| 1777531540 | 5° C | 90% | 988.5 hPa | 0 mm | - | - | - |
| 1777530659 | 5.56° C | 88% | 987.7 hPa | 0 mm | - | - | - |
| 1777529741 | 5.56° C | 88% | 987.7 hPa | 0 mm | - | - | - |
| 1777528880 | 5.56° C | 88% | 987.7 hPa | 0 mm | - | - | - |
| 1777527939 | 5.56° C | 87% | 987 hPa | 0 mm | - | - | - |
| 1777527060 | 5.56° C | 94% | 987.3 hPa | 0 mm | - | - | - |
| 1777526140 | 5.56° C | 94% | 987.3 hPa | 0 mm | - | - | - |
* Rain latest hour (hover to see other rain measurements)
** Current wind speed in m/s (hover to see current wind gust speed)